createdAt,value
2023-01-13T00:02:21.746Z,48.50
2023-01-13T00:07:23.611Z,48.72
2023-01-13T00:12:25.467Z,48.46
2023-01-13T00:17:27.384Z,48.38
2023-01-13T00:22:29.590Z,48.49
2023-01-13T00:27:31.922Z,48.73
2023-01-13T00:32:33.880Z,48.45
2023-01-13T00:37:38.156Z,48.29
2023-01-13T00:42:58.657Z,48.26
2023-01-13T00:48:00.638Z,48.41
2023-01-13T00:53:02.659Z,48.48
2023-01-13T00:58:04.535Z,48.65
2023-01-13T01:03:12.597Z,48.69
2023-01-13T01:08:14.774Z,48.37
2023-01-13T01:13:18.036Z,48.29
2023-01-13T01:18:19.880Z,48.16
2023-01-13T01:23:21.668Z,48.21
2023-01-13T01:28:23.536Z,48.32
2023-01-13T01:33:26.160Z,48.12
2023-01-13T01:38:28.277Z,48.17
2023-01-13T01:44:08.483Z,48.15
2023-01-13T01:49:15.775Z,48.30
2023-01-13T01:54:25.776Z,48.25
2023-01-13T01:59:29.993Z,48.19
2023-01-13T02:04:38.079Z,47.95
2023-01-13T02:09:39.927Z,47.81
2023-01-13T02:14:42.387Z,48.15
2023-01-13T02:20:18.130Z,47.92
2023-01-13T02:25:34.452Z,47.89
2023-01-13T02:31:01.345Z,47.83
2023-01-13T02:36:13.963Z,48.03
2023-01-13T02:41:45.842Z,47.84
2023-01-13T02:47:10.534Z,48.03
2023-01-13T02:52:28.772Z,47.99
2023-01-13T02:57:34.240Z,47.64
2023-01-13T03:02:36.375Z,47.74
2023-01-13T03:08:00.015Z,47.87
2023-01-13T03:13:36.958Z,47.94
2023-01-13T03:18:57.364Z,47.61
2023-01-13T03:24:20.822Z,47.62
2023-01-13T03:29:28.350Z,47.57
2023-01-13T03:34:50.889Z,47.73
2023-01-13T03:40:00.482Z,47.61
2023-01-13T03:45:18.145Z,47.76
2023-01-13T03:50:28.478Z,47.38
2023-01-13T03:55:35.278Z,47.64
2023-01-13T04:00:44.522Z,47.52
2023-01-13T04:05:56.956Z,47.49
2023-01-13T04:11:04.408Z,47.33
2023-01-13T04:16:09.198Z,47.21
2023-01-13T04:21:11.236Z,47.56
2023-01-13T04:26:13.237Z,47.55
2023-01-13T04:31:15.731Z,47.41
2023-01-13T04:36:17.756Z,47.55
2023-01-13T04:41:19.684Z,47.43
2023-01-13T04:46:21.465Z,47.37
2023-01-13T04:51:23.455Z,47.23
2023-01-13T04:56:25.308Z,47.50
2023-01-13T05:01:27.372Z,47.59
2023-01-13T05:06:30.457Z,47.21
2023-01-13T05:11:51.128Z,47.07
2023-01-13T05:17:02.002Z,47.21
2023-01-13T05:22:22.546Z,47.10
2023-01-13T05:27:24.530Z,47.02
2023-01-13T05:32:28.373Z,47.11
2023-01-13T05:37:30.594Z,47.13
2023-01-13T05:42:51.065Z,47.29
2023-01-13T05:47:52.917Z,46.96
2023-01-13T05:52:55.337Z,47.09
2023-01-13T05:57:57.216Z,47.06
2023-01-13T06:02:59.249Z,47.25
2023-01-13T06:08:03.161Z,46.85
2023-01-13T06:13:05.554Z,47.07
2023-01-13T06:18:07.489Z,47.15
2023-01-13T06:23:11.314Z,46.82
2023-01-13T06:28:13.581Z,46.84
2023-01-13T06:33:20.162Z,47.05
2023-01-13T06:38:23.570Z,47.05
2023-01-13T06:43:26.019Z,46.80
2023-01-13T06:48:33.252Z,46.67
2023-01-13T06:53:35.157Z,46.95
2023-01-13T06:58:37.039Z,46.78
2023-01-13T07:03:40.915Z,46.65
2023-01-13T07:08:42.989Z,46.81
2023-01-13T07:14:11.079Z,46.58
2023-01-13T07:19:13.053Z,46.55
2023-01-13T07:24:16.635Z,46.59
2023-01-13T07:29:20.843Z,46.49
2023-01-13T07:34:22.959Z,46.64
2023-01-13T07:39:24.966Z,46.47
2023-01-13T07:44:28.104Z,46.86
2023-01-13T07:49:29.950Z,46.38
2023-01-13T07:54:40.762Z,46.64
2023-01-13T07:59:43.098Z,46.44
2023-01-13T08:04:45.287Z,46.83
2023-01-13T08:09:47.535Z,46.66
2023-01-13T08:14:51.155Z,46.91
2023-01-13T08:19:53.025Z,48.61
2023-01-13T08:24:55.101Z,47.38
2023-01-13T08:29:57.110Z,46.64
2023-01-13T08:34:58.941Z,45.77
2023-01-13T08:40:00.912Z,45.98
2023-01-13T08:45:03.027Z,46.69
2023-01-13T08:50:07.250Z,46.68
2023-01-13T08:55:10.772Z,46.57
2023-01-13T09:00:13.298Z,46.79
2023-01-13T09:05:17.616Z,46.50
2023-01-13T09:10:19.637Z,46.61
2023-01-13T09:15:21.988Z,46.50
2023-01-13T09:20:23.996Z,46.26
2023-01-13T09:25:26.167Z,46.41
2023-01-13T09:30:28.733Z,46.38
2023-01-13T09:35:30.759Z,46.31
2023-01-13T09:40:32.609Z,46.07
2023-01-13T09:45:42.606Z,45.99
2023-01-13T09:50:58.974Z,46.21
2023-01-13T09:56:01.150Z,45.95
2023-01-13T10:01:29.069Z,45.91
2023-01-13T10:06:39.585Z,45.88
2023-01-13T10:12:04.521Z,46.11
2023-01-13T10:17:21.702Z,46.07
2023-01-13T10:22:35.740Z,45.75
2023-01-13T10:27:41.119Z,45.87
2023-01-13T10:32:47.444Z,45.91
2023-01-13T10:37:57.762Z,45.76
2023-01-13T10:43:06.972Z,45.59
2023-01-13T10:48:15.502Z,45.60
2023-01-13T10:53:22.796Z,45.80
2023-01-13T10:58:25.544Z,46.44
2023-01-13T11:03:36.678Z,46.05
2023-01-13T11:08:45.371Z,45.76
2023-01-13T11:14:09.219Z,45.62
2023-01-13T11:19:18.565Z,45.02
2023-01-13T11:24:30.039Z,44.59
2023-01-13T11:29:58.603Z,44.75
2023-01-13T11:35:16.163Z,44.17
2023-01-13T11:40:37.719Z,44.11
2023-01-13T11:45:47.055Z,44.13
2023-01-13T11:51:00.465Z,44.45
2023-01-13T11:56:24.818Z,43.36
2023-01-13T12:01:39.579Z,43.21
2023-01-13T12:06:41.910Z,43.56
2023-01-13T12:12:20.572Z,43.47
2023-01-13T12:17:43.742Z,43.58
2023-01-13T12:22:52.512Z,43.78
2023-01-13T12:28:01.085Z,44.33
2023-01-13T12:33:26.277Z,44.64
2023-01-13T12:38:49.418Z,44.22
2023-01-13T12:44:11.684Z,45.13
2023-01-13T12:49:23.529Z,45.32
2023-01-13T12:54:31.494Z,44.90
2023-01-13T12:59:35.064Z,44.63
2023-01-13T13:05:01.569Z,43.87
2023-01-13T13:10:13.987Z,44.72
2023-01-13T13:15:26.602Z,46.59
2023-01-13T13:20:58.525Z,46.57
2023-01-13T13:26:26.331Z,46.74
2023-01-13T13:31:47.942Z,46.10
2023-01-13T13:36:58.695Z,45.74
2023-01-13T13:42:30.695Z,45.43
2023-01-13T13:47:39.834Z,45.14
2023-01-13T13:52:54.522Z,45.08
2023-01-13T13:57:59.358Z,45.03
2023-01-13T14:03:06.103Z,45.85
2023-01-13T14:08:18.255Z,45.97
2023-01-13T14:13:27.607Z,45.59
2023-01-13T14:18:32.583Z,45.88
2023-01-13T14:23:34.505Z,45.87
2023-01-13T14:28:38.480Z,46.12
2023-01-13T14:33:49.820Z,46.24
2023-01-13T14:39:04.112Z,46.33
2023-01-13T14:44:27.257Z,46.31
2023-01-13T14:49:32.181Z,46.31
2023-01-13T14:54:47.445Z,46.90
2023-01-13T14:59:57.717Z,46.42
2023-01-13T15:05:19.192Z,46.67
2023-01-13T15:10:25.220Z,46.64
2023-01-13T15:15:38.730Z,46.75
2023-01-13T15:20:41.735Z,46.68
2023-01-13T15:25:45.386Z,46.57
2023-01-13T15:30:48.561Z,46.91
2023-01-13T15:35:52.474Z,46.72
2023-01-13T15:40:54.327Z,47.16
2023-01-13T15:46:14.860Z,47.38
2023-01-13T15:51:16.769Z,48.15
2023-01-13T15:56:29.131Z,48.62
2023-01-13T16:01:31.217Z,48.46
2023-01-13T16:06:33.237Z,48.64
2023-01-13T16:11:35.037Z,48.36
2023-01-13T16:16:37.652Z,47.96
2023-01-13T16:21:41.009Z,48.23
2023-01-13T16:26:43.189Z,48.17
2023-01-13T16:31:45.208Z,47.96
2023-01-13T16:36:47.196Z,48.14
2023-01-13T16:41:49.629Z,47.96
2023-01-13T16:46:51.613Z,47.99
2023-01-13T16:51:53.721Z,47.89
2023-01-13T16:56:55.802Z,47.59
2023-01-13T17:01:57.697Z,47.85
2023-01-13T17:07:08.329Z,47.59
2023-01-13T17:12:10.439Z,47.69
2023-01-13T17:17:24.883Z,47.47
2023-01-13T17:22:26.861Z,47.45
2023-01-13T17:27:28.687Z,47.62
2023-01-13T17:32:30.879Z,47.37
2023-01-13T17:37:32.895Z,47.58
2023-01-13T17:42:34.694Z,47.21
2023-01-13T17:47:36.529Z,47.41
2023-01-13T17:52:38.533Z,47.37
2023-01-13T17:57:40.514Z,47.10
2023-01-13T18:02:42.843Z,47.06
2023-01-13T18:07:45.086Z,47.45
2023-01-13T18:12:47.140Z,47.13
2023-01-13T18:17:49.091Z,47.18
2023-01-13T18:23:09.542Z,47.79
2023-01-13T18:28:11.378Z,47.54
2023-01-13T18:33:13.313Z,47.52
2023-01-13T18:38:25.447Z,47.60
2023-01-13T18:43:27.462Z,47.84
2023-01-13T18:48:31.507Z,48.03
2023-01-13T18:53:33.550Z,47.55
2023-01-13T18:58:35.559Z,47.45
2023-01-13T19:03:37.592Z,47.70
2023-01-13T19:08:40.479Z,47.60
2023-01-13T19:13:42.526Z,47.45
2023-01-13T19:18:45.094Z,47.57
2023-01-13T19:23:47.324Z,47.58
2023-01-13T19:28:50.743Z,47.56
2023-01-13T19:33:52.679Z,47.54
2023-01-13T19:38:54.510Z,53.49
2023-01-13T19:44:15.192Z,53.59
2023-01-13T19:49:17.289Z,53.29
2023-01-13T19:54:19.270Z,52.52
2023-01-13T19:59:23.437Z,51.63
2023-01-13T20:04:38.589Z,51.04
2023-01-13T20:09:43.463Z,51.30
2023-01-13T20:14:47.611Z,51.39
2023-01-13T20:19:49.721Z,51.03
2023-01-13T20:24:55.465Z,50.99
2023-01-13T20:29:58.258Z,51.17
2023-01-13T20:35:00.110Z,51.20
2023-01-13T20:40:02.088Z,50.88
2023-01-13T20:45:04.378Z,50.57
2023-01-13T20:50:06.744Z,50.55
2023-01-13T20:55:09.712Z,50.46
2023-01-13T21:00:11.949Z,50.07
2023-01-13T21:05:14.062Z,49.80
2023-01-13T21:10:16.131Z,49.82
2023-01-13T21:15:18.043Z,49.60
2023-01-13T21:20:20.053Z,49.67
2023-01-13T21:25:22.319Z,49.62
2023-01-13T21:30:24.325Z,49.22
2023-01-13T21:35:26.549Z,49.47
2023-01-13T21:40:28.681Z,48.54
2023-01-13T21:45:49.485Z,48.15
2023-01-13T21:50:51.394Z,48.07
2023-01-13T21:55:53.317Z,47.82
2023-01-13T22:00:55.356Z,47.55
2023-01-13T22:05:57.368Z,47.69
2023-01-13T22:11:02.816Z,48.21
2023-01-13T22:16:05.375Z,47.70
2023-01-13T22:21:07.323Z,47.95
2023-01-13T22:26:09.798Z,48.06
2023-01-13T22:31:16.678Z,48.40
2023-01-13T22:36:18.731Z,48.25
2023-01-13T22:41:20.557Z,48.12
2023-01-13T22:46:23.288Z,47.68
2023-01-13T22:51:26.831Z,47.61
2023-01-13T22:56:28.792Z,47.66
2023-01-13T23:01:33.039Z,47.63
2023-01-13T23:06:35.336Z,47.35
2023-01-13T23:11:37.687Z,47.44
2023-01-13T23:16:40.596Z,47.30
2023-01-13T23:21:43.028Z,47.19
2023-01-13T23:26:45.393Z,47.29
2023-01-13T23:31:47.811Z,47.17
2023-01-13T23:36:49.691Z,46.76
2023-01-13T23:41:52.001Z,47.01
2023-01-13T23:46:53.856Z,46.99
2023-01-13T23:51:55.798Z,46.93
2023-01-13T23:56:57.987Z,46.54
